createdAt,value
2023-04-01T00:02:00.441Z,4.30
2023-04-01T00:04:29.254Z,4.31
2023-04-01T00:06:56.257Z,4.29
2023-04-01T00:09:23.596Z,4.24
2023-04-01T00:11:51.436Z,4.16
2023-04-01T00:14:19.177Z,4.07
2023-04-01T00:16:46.238Z,3.98
2023-04-01T00:19:14.846Z,3.93
2023-04-01T00:21:42.241Z,3.89
2023-04-01T00:24:09.564Z,3.84
2023-04-01T00:26:36.663Z,3.81
2023-04-01T00:29:04.070Z,3.78
2023-04-01T00:31:31.316Z,3.79
2023-04-01T00:33:58.807Z,3.80
2023-04-01T00:36:26.244Z,3.88
2023-04-01T00:38:54.007Z,3.91
2023-04-01T00:41:22.768Z,3.89
2023-04-01T00:44:14.360Z,3.84
2023-04-01T00:46:41.373Z,3.88
2023-04-01T00:49:10.727Z,3.88
2023-04-01T00:51:39.280Z,3.87
2023-04-01T00:54:08.768Z,3.82
2023-04-01T00:56:40.760Z,3.77
2023-04-01T00:59:17.239Z,3.71
2023-04-01T01:01:44.222Z,3.66
2023-04-01T01:04:41.306Z,3.58
2023-04-01T01:07:14.629Z,3.54
2023-04-01T01:10:11.794Z,3.53
2023-04-01T01:13:04.779Z,3.58
2023-04-01T01:15:47.487Z,3.64
2023-04-01T01:18:23.450Z,3.70
2023-04-01T01:20:56.846Z,3.74
2023-04-01T01:23:51.335Z,3.73
2023-04-01T01:26:30.755Z,3.69
2023-04-01T01:29:09.725Z,3.67
2023-04-01T01:31:58.323Z,3.64
2023-04-01T01:34:31.347Z,3.59
2023-04-01T01:37:14.044Z,3.54
2023-04-01T01:39:42.856Z,3.50
2023-04-01T01:42:14.480Z,3.45
2023-04-01T01:44:45.338Z,3.38
2023-04-01T01:47:14.614Z,3.34
2023-04-01T01:49:44.359Z,3.29
2023-04-01T01:52:12.619Z,3.24
2023-04-01T01:54:53.881Z,3.24
2023-04-01T01:57:27.466Z,3.22
2023-04-01T01:59:59.534Z,3.19
2023-04-01T02:02:27.875Z,3.12
2023-04-01T02:04:55.772Z,3.11
2023-04-01T02:07:28.815Z,3.12
2023-04-01T02:09:57.701Z,3.12
2023-04-01T02:12:25.967Z,3.12
2023-04-01T02:14:58.305Z,3.09
2023-04-01T02:17:30.276Z,3.04
2023-04-01T02:20:01.218Z,3.01
2023-04-01T02:22:38.369Z,2.96
2023-04-01T02:25:29.565Z,2.86
2023-04-01T02:27:59.379Z,2.82
2023-04-01T02:30:29.585Z,2.76
2023-04-01T02:32:59.311Z,2.72
2023-04-01T02:35:26.966Z,2.68
2023-04-01T02:37:57.123Z,2.69
2023-04-01T02:40:24.138Z,2.69
2023-04-01T02:42:51.800Z,2.69
2023-04-01T02:45:18.939Z,2.70
2023-04-01T02:47:46.373Z,2.72
2023-04-01T02:50:13.430Z,2.79
2023-04-01T02:52:40.988Z,2.84
2023-04-01T02:55:08.337Z,2.86
2023-04-01T02:57:36.636Z,2.84
2023-04-01T03:00:04.723Z,2.85
2023-04-01T03:02:32.080Z,2.83
2023-04-01T03:04:59.207Z,2.81
2023-04-01T03:07:26.508Z,2.77
2023-04-01T03:09:53.466Z,2.76
2023-04-01T03:12:20.773Z,2.76
2023-04-01T03:14:47.858Z,2.77
2023-04-01T03:17:15.544Z,2.78
2023-04-01T03:19:42.930Z,2.81
2023-04-01T03:22:12.491Z,2.82
2023-04-01T03:24:39.482Z,2.80
2023-04-01T03:27:06.784Z,2.79
2023-04-01T03:29:33.905Z,2.79
2023-04-01T03:32:01.417Z,2.75
2023-04-01T03:34:28.384Z,2.73
2023-04-01T03:36:56.149Z,2.71
2023-04-01T03:39:23.456Z,2.69
2023-04-01T03:41:51.133Z,2.71
2023-04-01T03:44:19.190Z,2.69
2023-04-01T03:46:47.880Z,2.67
2023-04-01T03:49:16.831Z,2.71
2023-04-01T03:51:44.862Z,2.70
2023-04-01T03:54:12.280Z,2.75
2023-04-01T03:56:42.254Z,2.77
2023-04-01T03:59:09.930Z,2.75
2023-04-01T04:01:39.775Z,2.77
2023-04-01T04:04:07.081Z,2.81
2023-04-01T04:06:38.044Z,2.84
2023-04-01T04:09:05.154Z,2.85
2023-04-01T04:11:36.355Z,2.91
2023-04-01T04:14:03.792Z,2.88
2023-04-01T04:16:31.506Z,2.92
2023-04-01T04:19:00.553Z,2.98
2023-04-01T04:21:28.523Z,3.02
2023-04-01T04:23:55.892Z,3.08
2023-04-01T04:26:23.633Z,3.12
2023-04-01T04:28:51.340Z,3.13
2023-04-01T04:31:25.998Z,3.16
2023-04-01T04:33:53.654Z,3.20
2023-04-01T04:36:22.389Z,3.28
2023-04-01T04:38:50.574Z,3.31
2023-04-01T04:41:20.212Z,3.36
2023-04-01T04:43:56.244Z,3.41
2023-04-01T04:46:24.774Z,3.45
2023-04-01T04:48:52.017Z,3.52
2023-04-01T04:51:21.724Z,3.61
2023-04-01T04:53:52.717Z,3.68
2023-04-01T04:56:23.981Z,3.77
2023-04-01T04:58:51.139Z,3.84
2023-04-01T05:01:19.778Z,3.92
2023-04-01T05:03:48.494Z,4.05
2023-04-01T05:06:17.503Z,4.13
2023-04-01T05:08:45.755Z,4.28
2023-04-01T05:11:15.679Z,4.40
2023-04-01T05:13:43.940Z,4.56
2023-04-01T05:16:17.792Z,4.71
2023-04-01T05:18:44.868Z,4.86
2023-04-01T05:21:14.119Z,4.98
2023-04-01T05:23:41.830Z,5.11
2023-04-01T05:26:14.423Z,5.27
2023-04-01T05:28:41.563Z,5.42
2023-04-01T05:31:10.417Z,5.55
2023-04-01T05:33:37.499Z,5.66
2023-04-01T05:36:13.412Z,5.78
2023-04-01T05:38:41.890Z,5.90
2023-04-01T05:41:09.455Z,6.05
2023-04-01T05:43:41.090Z,6.14
2023-04-01T05:46:09.035Z,6.27
2023-04-01T05:48:36.389Z,6.38
2023-04-01T05:51:05.106Z,6.48
2023-04-01T05:53:33.729Z,6.57
2023-04-01T05:56:05.545Z,6.66
2023-04-01T05:58:32.850Z,6.77
2023-04-01T06:01:12.825Z,6.87
2023-04-01T06:03:43.646Z,6.92
2023-04-01T06:06:20.089Z,6.97
2023-04-01T06:08:47.799Z,6.97
2023-04-01T06:11:30.152Z,6.99
2023-04-01T06:14:12.982Z,7.07
2023-04-01T06:16:59.786Z,7.15
2023-04-01T06:19:53.938Z,7.24
2023-04-01T06:22:50.875Z,7.32
2023-04-01T06:25:48.639Z,7.38
2023-04-01T06:32:05.517Z,7.55
2023-04-01T06:34:39.881Z,7.68
2023-04-01T06:37:39.892Z,7.78
2023-04-01T06:40:24.004Z,7.89
2023-04-01T06:43:29.732Z,8.02
2023-04-01T06:46:10.495Z,8.11
2023-04-01T06:54:51.240Z,8.65
2023-04-01T06:57:38.000Z,8.82
2023-04-01T07:00:30.277Z,9.02
2023-04-01T07:03:46.063Z,9.21
2023-04-01T07:06:32.133Z,9.39
2023-04-01T07:09:04.209Z,9.56
2023-04-01T07:11:35.536Z,9.72
2023-04-01T07:14:23.554Z,9.87
2023-04-01T07:17:00.452Z,9.99
2023-04-01T07:19:36.011Z,10.11
2023-04-01T07:22:40.100Z,10.20
2023-04-01T07:25:14.805Z,10.30
2023-04-01T07:27:47.417Z,10.47
2023-04-01T07:30:20.309Z,10.61
2023-04-01T07:32:56.827Z,10.79
2023-04-01T07:35:42.114Z,11.02
2023-04-01T07:38:33.448Z,11.21
2023-04-01T07:41:14.738Z,11.45
2023-04-01T07:44:05.825Z,11.78
2023-04-01T07:46:54.799Z,12.10
2023-04-01T08:00:42.837Z,13.29
2023-04-01T08:03:19.698Z,13.45
2023-04-01T08:06:01.327Z,13.66
2023-04-01T08:08:47.710Z,13.76
2023-04-01T08:11:38.009Z,13.75
2023-04-01T08:14:26.107Z,13.66
2023-04-01T08:17:02.062Z,13.71
2023-04-01T08:19:51.466Z,13.88
2023-04-01T08:22:30.365Z,13.90
2023-04-01T08:25:03.714Z,14.02
2023-04-01T08:27:57.992Z,14.23
2023-04-01T08:31:01.790Z,14.67
2023-04-01T08:33:31.735Z,15.38
2023-04-01T08:36:13.781Z,15.86
2023-04-01T08:38:59.164Z,16.04
2023-04-01T08:41:57.819Z,16.10
2023-04-01T08:44:46.920Z,16.13
2023-04-01T08:48:01.747Z,16.36
2023-04-01T08:50:57.439Z,16.75
2023-04-01T08:53:53.621Z,17.33
2023-04-01T08:56:36.564Z,18.06
2023-04-01T08:59:44.605Z,18.65
2023-04-01T09:02:44.399Z,18.99
2023-04-01T09:05:38.067Z,18.18
2023-04-01T09:08:18.752Z,17.30
2023-04-01T09:10:49.038Z,16.80
2023-04-01T09:13:43.557Z,16.39
2023-04-01T09:16:37.137Z,16.02
2023-04-01T09:19:26.880Z,15.78
2023-04-01T09:22:13.055Z,15.70
2023-04-01T09:25:18.928Z,15.75
2023-04-01T09:27:57.984Z,15.81
2023-04-01T09:30:37.323Z,15.73
2023-04-01T09:33:12.003Z,15.62
2023-04-01T09:35:50.244Z,15.58
2023-04-01T09:38:54.958Z,15.65
2023-04-01T09:42:03.818Z,15.66
2023-04-01T09:44:34.942Z,15.67
2023-04-01T09:47:11.500Z,15.68
2023-04-01T09:49:50.758Z,15.78
2023-04-01T09:52:39.375Z,15.99
2023-04-01T09:55:07.804Z,16.35
2023-04-01T09:57:53.813Z,16.60
2023-04-01T10:00:29.136Z,16.67
2023-04-01T10:03:17.044Z,16.46
2023-04-01T10:06:22.384Z,16.18
2023-04-01T10:09:41.987Z,15.91
2023-04-01T10:12:28.721Z,15.71
2023-04-01T10:15:20.671Z,15.56
2023-04-01T10:18:06.248Z,15.39
2023-04-01T10:20:56.172Z,15.26
2023-04-01T10:23:52.612Z,15.12
2023-04-01T10:27:03.877Z,15.03
2023-04-01T10:29:54.445Z,14.99
2023-04-01T10:32:42.343Z,14.97
2023-04-01T10:35:13.605Z,14.94
2023-04-01T10:38:12.050Z,14.93
2023-04-01T10:40:49.086Z,15.03
2023-04-01T10:43:41.288Z,15.11
2023-04-01T10:46:42.776Z,15.14
2023-04-01T10:49:17.134Z,15.12
2023-04-01T10:52:08.106Z,15.12
2023-04-01T10:54:47.066Z,15.05
2023-04-01T10:57:38.343Z,15.05
2023-04-01T11:00:21.518Z,15.06
2023-04-01T11:03:38.881Z,15.07
2023-04-01T11:06:28.178Z,15.11
2023-04-01T11:08:55.550Z,15.17
2023-04-01T11:11:56.804Z,15.20
2023-04-01T11:14:59.206Z,15.20
2023-04-01T11:17:49.375Z,15.22
2023-04-01T11:20:48.049Z,15.26
2023-04-01T11:23:51.942Z,15.24
2023-04-01T11:26:51.443Z,15.24
2023-04-01T11:30:00.485Z,15.22
2023-04-01T11:33:05.822Z,15.19
2023-04-01T11:36:16.423Z,15.13
2023-04-01T11:39:11.093Z,15.11
2023-04-01T11:42:12.443Z,15.10
2023-04-01T11:45:06.151Z,15.11
2023-04-01T11:47:56.062Z,15.16
2023-04-01T11:50:44.933Z,15.20
2023-04-01T11:53:27.305Z,15.21
2023-04-01T11:56:18.145Z,15.24
2023-04-01T11:59:22.834Z,15.22
2023-04-01T12:02:08.760Z,15.22
2023-04-01T12:04:43.664Z,15.19
2023-04-01T12:10:34.596Z,15.14
2023-04-01T12:13:17.777Z,15.08
2023-04-01T12:16:18.734Z,15.05
2023-04-01T12:19:11.196Z,15.03
2023-04-01T12:21:44.565Z,15.00
2023-04-01T12:24:42.413Z,15.00
2023-04-01T12:28:03.400Z,14.98
2023-04-01T12:30:52.188Z,15.01
2023-04-01T12:33:48.597Z,14.98
2023-04-01T12:36:38.688Z,14.94
2023-04-01T12:39:24.194Z,14.94
2023-04-01T12:41:57.873Z,14.94
2023-04-01T12:44:56.777Z,14.94
2023-04-01T12:47:42.919Z,14.93
2023-04-01T12:50:29.267Z,14.92
2023-04-01T12:53:04.752Z,14.89
2023-04-01T12:55:46.412Z,14.91
2023-04-01T12:59:28.611Z,14.91
2023-04-01T13:02:15.524Z,14.87
2023-04-01T13:05:34.510Z,14.81
2023-04-01T13:08:31.470Z,14.74
2023-04-01T13:11:17.923Z,14.61
2023-04-01T13:14:05.922Z,14.50
2023-04-01T13:17:08.299Z,14.32
2023-04-01T13:20:05.060Z,14.20
2023-04-01T13:23:17.870Z,14.05
2023-04-01T13:26:10.992Z,13.96
2023-04-01T13:28:48.416Z,13.91
2023-04-01T13:31:30.986Z,13.89
2023-04-01T13:34:24.435Z,13.88
2023-04-01T13:37:15.315Z,13.89
2023-04-01T13:40:03.570Z,13.85
2023-04-01T13:42:35.105Z,13.81
2023-04-01T13:45:20.851Z,13.75
2023-04-01T13:48:06.930Z,13.70
2023-04-01T13:51:03.223Z,13.63
2023-04-01T13:53:42.677Z,13.59
2023-04-01T13:56:34.483Z,13.50
2023-04-01T13:59:37.327Z,13.39
2023-04-01T14:02:26.601Z,13.28
2023-04-01T14:05:41.779Z,13.19
2023-04-01T14:08:28.817Z,13.03
2023-04-01T14:11:26.563Z,12.98
2023-04-01T14:14:09.832Z,12.88
2023-04-01T14:17:02.132Z,12.74
2023-04-01T14:19:40.753Z,12.70
2023-04-01T14:22:39.490Z,12.60
2023-04-01T14:25:30.032Z,12.53
2023-04-01T14:28:04.846Z,12.45
2023-04-01T14:30:53.232Z,12.39
2023-04-01T14:34:04.938Z,12.33
2023-04-01T14:37:06.159Z,12.30
2023-04-01T14:39:59.302Z,12.27
2023-04-01T14:42:31.854Z,12.22
2023-04-01T14:45:32.246Z,12.21
2023-04-01T14:48:18.590Z,12.19
2023-04-01T14:50:58.770Z,12.15
2023-04-01T14:53:26.240Z,12.13
2023-04-01T14:56:03.908Z,12.12
2023-04-01T14:59:01.804Z,12.08
2023-04-01T15:01:43.652Z,12.04
2023-04-01T15:04:45.381Z,11.99
2023-04-01T15:07:42.984Z,11.97
2023-04-01T15:10:46.911Z,11.93
2023-04-01T15:13:31.743Z,11.92
2023-04-01T15:16:05.305Z,11.91
2023-04-01T15:19:15.860Z,11.86
2023-04-01T15:22:03.486Z,11.85
2023-04-01T15:25:02.785Z,11.82
2023-04-01T15:27:46.371Z,11.73
2023-04-01T15:30:23.089Z,11.71
2023-04-01T15:33:11.583Z,11.66
2023-04-01T15:36:00.446Z,11.63
2023-04-01T15:38:55.869Z,11.59
2023-04-01T15:41:30.805Z,11.57
2023-04-01T15:44:40.402Z,11.50
2023-04-01T15:47:25.971Z,11.46
2023-04-01T15:50:16.664Z,11.42
2023-04-01T15:53:24.317Z,11.36
2023-04-01T15:56:08.270Z,11.29
2023-04-01T15:59:13.078Z,11.25
2023-04-01T16:01:56.181Z,11.22
2023-04-01T16:05:04.600Z,11.18
2023-04-01T16:07:32.496Z,11.11
2023-04-01T16:10:37.000Z,11.08
2023-04-01T16:13:24.734Z,11.03
2023-04-01T16:16:31.321Z,10.99
2023-04-01T16:19:07.756Z,10.96
2023-04-01T16:22:01.995Z,10.93
2023-04-01T16:25:07.243Z,10.90
2023-04-01T16:27:58.009Z,10.84
2023-04-01T16:31:08.964Z,10.81
2023-04-01T16:33:57.499Z,10.77
2023-04-01T16:36:34.650Z,10.73
2023-04-01T16:39:28.423Z,10.71
2023-04-01T16:42:26.288Z,10.70
2023-04-01T16:45:09.933Z,10.70
2023-04-01T16:47:46.567Z,10.67
2023-04-01T16:50:22.246Z,10.65
2023-04-01T16:53:00.823Z,10.62
2023-04-01T16:55:54.734Z,10.58
2023-04-01T16:58:38.771Z,10.52
2023-04-01T17:01:18.726Z,10.44
2023-04-01T17:04:09.070Z,10.42
2023-04-01T17:06:50.727Z,10.38
2023-04-01T17:09:17.833Z,10.40
2023-04-01T17:12:06.726Z,10.39
2023-04-01T17:15:15.815Z,10.36
2023-04-01T17:18:02.838Z,10.33
2023-04-01T17:20:42.433Z,10.31
2023-04-01T17:23:13.670Z,10.28
2023-04-01T17:25:52.009Z,10.24
2023-04-01T17:28:37.793Z,10.17
2023-04-01T17:31:43.641Z,10.17
2023-04-01T17:34:16.747Z,10.13
2023-04-01T17:36:55.965Z,10.12
2023-04-01T17:39:44.726Z,10.09
2023-04-01T17:42:21.866Z,10.08
2023-04-01T17:45:16.749Z,10.06
2023-04-01T17:47:59.613Z,10.03
2023-04-01T17:50:54.804Z,9.99
2023-04-01T17:53:47.106Z,9.95
2023-04-01T17:56:45.489Z,9.92
2023-04-01T17:59:35.218Z,9.89
2023-04-01T18:02:28.713Z,9.87
2023-04-01T18:05:22.493Z,9.85
2023-04-01T18:07:58.567Z,9.85
2023-04-01T18:10:54.082Z,9.85
2023-04-01T18:13:31.161Z,9.82
2023-04-01T18:16:08.785Z,9.81
2023-04-01T18:19:02.068Z,9.80
2023-04-01T18:21:30.534Z,9.81
2023-04-01T18:24:44.600Z,9.78
2023-04-01T18:27:31.139Z,9.72
2023-04-01T18:30:08.548Z,9.73
2023-04-01T18:32:49.112Z,9.74
2023-04-01T18:35:26.373Z,9.71
2023-04-01T18:37:58.090Z,9.68
2023-04-01T18:40:46.565Z,9.71
2023-04-01T18:43:38.730Z,9.70
2023-04-01T18:46:41.004Z,9.68
2023-04-01T18:49:52.312Z,9.68
2023-04-01T18:52:30.125Z,9.63
2023-04-01T18:55:04.075Z,9.61
2023-04-01T18:58:03.463Z,9.60
2023-04-01T19:00:40.905Z,9.54
2023-04-01T19:03:27.923Z,9.53
2023-04-01T19:08:42.802Z,9.52
2023-04-01T19:11:41.655Z,9.49
2023-04-01T19:14:19.977Z,9.47
2023-04-01T19:17:02.378Z,9.42
2023-04-01T19:19:48.335Z,9.44
2023-04-01T19:22:31.056Z,9.44
2023-04-01T19:25:30.623Z,9.43
2023-04-01T19:28:47.174Z,9.41
2023-04-01T19:31:59.496Z,9.39
2023-04-01T19:34:48.509Z,9.40
2023-04-01T19:37:46.346Z,9.42
2023-04-01T19:40:50.220Z,9.41
2023-04-01T19:43:37.761Z,9.41
2023-04-01T19:46:25.983Z,9.42
2023-04-01T19:49:05.874Z,9.41
2023-04-01T19:52:13.450Z,9.40
2023-04-01T19:55:11.802Z,9.41
2023-04-01T19:58:14.088Z,9.41
2023-04-01T20:00:58.719Z,9.42
2023-04-01T20:03:30.935Z,9.42
2023-04-01T20:06:05.348Z,9.41
2023-04-01T20:09:17.914Z,9.40
2023-04-01T20:11:47.691Z,9.42
2023-04-01T20:14:27.677Z,9.42
2023-04-01T20:17:04.833Z,9.41
2023-04-01T20:19:38.394Z,9.39
2023-04-01T20:22:19.333Z,9.42
2023-04-01T20:24:48.226Z,9.43
2023-04-01T20:27:15.294Z,9.47
2023-04-01T20:30:08.958Z,9.50
2023-04-01T20:32:59.839Z,9.54
2023-04-01T20:36:07.268Z,9.53
2023-04-01T20:38:42.226Z,9.50
2023-04-01T20:41:29.520Z,9.48
2023-04-01T20:43:59.446Z,9.47
2023-04-01T20:46:26.755Z,9.43
2023-04-01T20:48:56.882Z,9.39
2023-04-01T20:51:27.820Z,9.33
2023-04-01T20:54:25.637Z,9.33
2023-04-01T20:57:41.157Z,9.31
2023-04-01T21:00:32.595Z,9.27
2023-04-01T21:03:18.283Z,9.27
2023-04-01T21:06:04.350Z,9.26
2023-04-01T21:08:59.951Z,9.23
2023-04-01T21:11:32.662Z,9.22
2023-04-01T21:14:17.915Z,9.18
2023-04-01T21:17:23.918Z,9.14
2023-04-01T21:20:00.669Z,9.14
2023-04-01T21:22:41.826Z,9.13
2023-04-01T21:25:27.485Z,9.13
2023-04-01T21:28:16.420Z,9.12
2023-04-01T21:31:34.993Z,9.10
2023-04-01T21:34:32.925Z,9.10
2023-04-01T21:37:19.037Z,9.08
2023-04-01T21:40:06.832Z,9.06
2023-04-01T21:42:50.231Z,9.08
2023-04-01T21:45:57.225Z,9.07
2023-04-01T21:48:54.514Z,9.08
2023-04-01T21:51:40.815Z,9.08
2023-04-01T21:54:32.042Z,9.09
2023-04-01T21:57:08.172Z,9.12
2023-04-01T21:59:41.535Z,9.12
2023-04-01T22:02:37.822Z,9.13
2023-04-01T22:05:21.367Z,9.12
2023-04-01T22:08:03.079Z,9.12
2023-04-01T22:10:36.335Z,9.12
2023-04-01T22:13:26.072Z,9.11
2023-04-01T22:16:18.688Z,9.11
2023-04-01T22:19:23.575Z,9.12
2023-04-01T22:22:14.262Z,9.14
2023-04-01T22:24:44.400Z,9.16
2023-04-01T22:27:35.936Z,9.20
2023-04-01T22:30:21.704Z,9.24
2023-04-01T22:32:53.598Z,9.25
2023-04-01T22:35:39.133Z,9.26
2023-04-01T22:38:28.400Z,9.26
2023-04-01T22:41:13.652Z,9.27
2023-04-01T22:43:44.328Z,9.29
2023-04-01T22:46:27.500Z,9.29
2023-04-01T22:49:07.195Z,9.29
2023-04-01T22:51:46.022Z,9.29
2023-04-01T22:54:29.056Z,9.28
2023-04-01T22:57:01.179Z,9.27
2023-04-01T23:00:13.766Z,9.28
2023-04-01T23:02:48.232Z,9.28
2023-04-01T23:05:19.715Z,9.28
2023-04-01T23:08:11.450Z,9.29
2023-04-01T23:10:55.291Z,9.26
2023-04-01T23:13:49.464Z,9.26
2023-04-01T23:16:20.728Z,9.23
2023-04-01T23:18:58.388Z,9.22
2023-04-01T23:21:52.980Z,9.21
2023-04-01T23:24:46.354Z,9.18
2023-04-01T23:27:20.896Z,9.17
2023-04-01T23:29:47.969Z,9.16
2023-04-01T23:32:20.509Z,9.15
2023-04-01T23:34:50.879Z,9.16
2023-04-01T23:37:20.401Z,9.13
2023-04-01T23:39:54.359Z,9.12
2023-04-01T23:42:42.306Z,9.13
2023-04-01T23:45:18.972Z,9.12
2023-04-01T23:47:47.976Z,9.10
2023-04-01T23:50:19.462Z,9.08
2023-04-01T23:53:04.381Z,9.07
2023-04-01T23:55:35.819Z,9.07
2023-04-01T23:58:06.273Z,9.06
